Welcome to Northern Hawkes Bay. New Zealand.
PWS Header
      nz Flag



Hit Counter


W3C Valid W3C Valid logo


    Wairoa

Select any of the Stations below to visit their websites.










Historic Data from Weather Underground
Select the location of interest below. Wairoa is the default. Please have patience, this Data is slow to load in.
Northern Hawkes Bay Historical Data
Daily Summary for May 17, 2018 Units:  Metric    English   Both
« Previous Day
Next Day »
Daily Weekly Monthly Yearly Custom
  High: Low: Average:
Temperature: 20.2 °C 8.6 °C 13.6 °C
Dew Point: 13.1 °C 6.7 °C 10.4 °C
Humidity: 97% 49% 83%
Wind Speed: 11.1km/h 0.0km/h 4km/h
Wind Gust: 18.3km/h - -
Wind- - WNW
Pressure: 1010.4 hPa 1002.9 hPa -
Precipitation: 0.3 mm    
Historical Graphs
 
 
Tabular Data for May 17, 2018
Time Temperature Dew Point Pressure Wind Wind Speed Wind Gust Humidity Rainfall Rate (Hourly) solar
00:02 13.4 °C 12.9 °C 1002.9 hPa NNW 3.5 km/h 7.2 km/h 97% 0.0 mm 0 W/m2
00:07 13.6 °C 13.1 °C 1002.9 hPa NNW 3.5 km/h 7.2 km/h 97% 0.0 mm 0 W/m2
00:12 13.5 °C 12.9 °C 1002.9 hPa NW 5.0 km/h 7.2 km/h 96% 0.0 mm 0 W/m2
00:17 13.3 °C 12.5 °C 1002.9 hPa NW 5.0 km/h 7.2 km/h 95% 0.0 mm 0 W/m2
00:22 13.2 °C 12.4 °C 1002.9 hPa NW 5.0 km/h 8.7 km/h 95% 0.0 mm 0 W/m2
00:27 13.0 °C 12.2 °C 1002.9 hPa NW 2.6 km/h 8.7 km/h 95% 0.0 mm 0 W/m2
00:32 13.0 °C 12.2 °C 1003.3 hPa NW 6.1 km/h 7.2 km/h 95% 0.0 mm 0 W/m2
00:37 12.9 °C 12.1 °C 1002.9 hPa NNW 5.0 km/h 8.7 km/h 95% 0.0 mm 0 W/m2
00:42 12.8 °C 12.0 °C 1002.9 hPa NNW 3.5 km/h 8.7 km/h 95% 0.0 mm 0 W/m2
00:47 12.8 °C 12.0 °C 1002.9 hPa Calm   8.7 km/h 95% 0.0 mm 0 W/m2
00:52 12.7 °C 11.9 °C 1002.9 hPa Calm   7.2 km/h 95% 0.0 mm 0 W/m2
00:57 12.6 °C 11.8 °C 1002.9 hPa WNW 1.1 km/h 5.0 km/h 95% 0.0 mm 0 W/m2
01:02 12.6 °C 11.8 °C 1002.9 hPa NW 2.6 km/h 5.0 km/h 95% 0.0 mm 0 W/m2
01:07 12.7 °C 11.9 °C 1002.9 hPa NW 6.1 km/h 7.2 km/h 95% 0.0 mm 0 W/m2
01:12 12.9 °C 11.9 °C 1002.9 hPa NNW 5.0 km/h 11.1 km/h 94% 0.3 mm 0 W/m2
01:17 13.5 °C 12.4 °C 1003.3 hPa NNW 7.2 km/h 12.2 km/h 93% 0.3 mm 0 W/m2
01:22 13.8 °C 12.2 °C 1003.3 hPa NW 7.2 km/h 14.8 km/h 90% 0.3 mm 0 W/m2
01:27 13.9 °C 11.9 °C 1003.3 hPa NW 5.0 km/h 14.8 km/h 88% 0.3 mm 0 W/m2
01:32 13.8 °C 11.7 °C 1003.3 hPa NW 7.2 km/h 11.1 km/h 87% 0.3 mm 0 W/m2
01:37 13.7 °C 11.6 °C 1003.3 hPa NW 3.5 km/h 11.1 km/h 87% 0.3 mm 0 W/m2
01:42 13.6 °C 11.5 °C 1003.3 hPa NW 5.0 km/h 11.1 km/h 87% 0.3 mm 0 W/m2
01:47 13.5 °C 11.4 °C 1003.3 hPa NW 2.6 km/h 7.2 km/h 87% 0.3 mm 0 W/m2
01:52 13.4 °C 11.3 °C 1003.6 hPa NW 3.5 km/h 6.1 km/h 87% 0.3 mm 0 W/m2
01:57 13.2 °C 11.1 °C 1003.6 hPa NW 2.6 km/h 7.2 km/h 87% 0.3 mm 0 W/m2
02:02 13.0 °C 10.9 °C 1003.6 hPa NW 2.6 km/h 7.2 km/h 87% 0.3 mm 0 W/m2
02:07 12.9 °C 10.9 °C 1003.6 hPa NW 3.5 km/h 6.1 km/h 88% 0.3 mm 0 W/m2
02:12 13.0 °C 11.1 °C 1003.6 hPa NW 5.0 km/h 6.1 km/h 88% 0.0 mm 0 W/m2
02:17 12.9 °C 10.9 °C 1003.6 hPa NW 3.5 km/h 6.1 km/h 88% 0.0 mm 0 W/m2
02:22 12.9 °C 10.9 °C 1003.6 hPa NW 5.0 km/h 6.1 km/h 88% 0.0 mm 0 W/m2
02:27 12.9 °C 11.1 °C 1003.9 hPa NNW 3.5 km/h 7.2 km/h 89% 0.0 mm 0 W/m2
02:32 12.9 °C 10.9 °C 1003.9 hPa NNW 6.1 km/h 8.7 km/h 88% 0.0 mm 0 W/m2
02:37 12.9 °C 10.9 °C 1003.6 hPa NW 5.0 km/h 8.7 km/h 88% 0.0 mm 0 W/m2
02:42 12.7 °C 10.8 °C 1003.6 hPa NNW 5.0 km/h 8.7 km/h 88% 0.0 mm 0 W/m2
02:47 12.6 °C 10.7 °C 1003.6 hPa NNW 3.5 km/h 8.7 km/h 88% 0.0 mm 0 W/m2
02:52 12.5 °C 10.7 °C 1003.6 hPa NNW 6.1 km/h 8.7 km/h 89% 0.0 mm 0 W/m2
02:57 12.5 °C 10.7 °C 1003.6 hPa NNW 8.7 km/h 12.2 km/h 89% 0.0 mm 0 W/m2
03:02 12.8 °C 11.1 °C 1003.6 hPa NNW 9.7 km/h 13.4 km/h 89% 0.0 mm 0 W/m2
03:07 13.2 °C 11.1 °C 1003.6 hPa NNW 6.1 km/h 13.4 km/h 87% 0.0 mm 0 W/m2
03:12 13.4 °C 11.1 °C 1003.3 hPa NNW 6.1 km/h 12.2 km/h 86% 0.0 mm 0 W/m2
03:17 13.5 °C 11.1 °C 1003.6 hPa NNW 5.0 km/h 12.2 km/h 85% 0.0 mm 0 W/m2
03:22 13.5 °C 11.1 °C 1003.6 hPa NNW 5.0 km/h 9.7 km/h 85% 0.0 mm 0 W/m2
03:27 13.2 °C 10.7 °C 1003.9 hPa North 5.0 km/h 11.1 km/h 85% 0.0 mm 0 W/m2
03:32 13.0 °C 10.6 °C 1003.6 hPa NNW 8.7 km/h 12.2 km/h 85% 0.0 mm 0 W/m2
03:37 13.2 °C 10.7 °C 1003.9 hPa NW 7.2 km/h 12.2 km/h 85% 0.0 mm 0 W/m2
03:42 13.2 °C 10.7 °C 1003.9 hPa NNW 8.7 km/h 13.4 km/h 85% 0.0 mm 0 W/m2
03:47 13.3 °C 10.7 °C 1003.9 hPa North 6.1 km/h 13.4 km/h 84% 0.0 mm 0 W/m2
03:52 13.4 °C 10.8 °C 1003.9 hPa NNW 8.7 km/h 13.4 km/h 84% 0.0 mm 0 W/m2
03:57 13.5 °C 10.7 °C 1003.9 hPa NW 8.7 km/h 14.8 km/h 83% 0.0 mm 0 W/m2
04:02 13.4 °C 10.6 °C 1003.9 hPa NNW 6.1 km/h 14.8 km/h 83% 0.0 mm 0 W/m2
04:07 13.3 °C 10.5 °C 1003.9 hPa NNW 8.7 km/h 13.4 km/h 83% 0.0 mm 0 W/m2
04:12 13.2 °C 10.4 °C 1003.9 hPa NW 8.7 km/h 14.8 km/h 83% 0.0 mm 0 W/m2
04:17 13.2 °C 10.4 °C 1003.9 hPa NW 6.1 km/h 14.8 km/h 83% 0.0 mm 0 W/m2
04:22 13.0 °C 10.2 °C 1003.9 hPa NNW 7.2 km/h 12.2 km/h 83% 0.0 mm 0 W/m2
04:38 12.5 °C 10.2 °C 1003.9 hPa North 5.0 km/h 12.2 km/h 86% 0.0 mm 0 W/m2
04:43 12.3 °C 10.2 °C 1003.9 hPa NNW 6.1 km/h 11.1 km/h 87% 0.0 mm 0 W/m2
04:48 12.3 °C 10.4 °C 1003.9 hPa NNW 5.0 km/h 9.7 km/h 88% 0.0 mm 0 W/m2
04:53 12.3 °C 10.4 °C 1003.9 hPa NNW 3.5 km/h 9.7 km/h 88% 0.0 mm 0 W/m2
04:58 12.3 °C 10.4 °C 1003.9 hPa NNW 5.0 km/h 9.7 km/h 88% 0.0 mm 0 W/m2
05:03 12.1 °C 10.3 °C 1003.9 hPa NW 2.6 km/h 8.7 km/h 89% 0.0 mm 0 W/m2
05:08 12.0 °C 10.2 °C 1003.9 hPa Calm   8.7 km/h 89% 0.0 mm 0 W/m2
05:13 12.0 °C 10.2 °C 1003.9 hPa NW 2.6 km/h 5.0 km/h 89% 0.0 mm 0 W/m2
05:18 11.9 °C 10.5 °C 1003.9 hPa NW 5.0 km/h 7.2 km/h 91% 0.0 mm 0 W/m2
05:23 11.8 °C 10.4 °C 1003.9 hPa NW 5.0 km/h 7.2 km/h 91% 0.0 mm 0 W/m2
05:28 11.8 °C 10.6 °C 1003.9 hPa NW 5.0 km/h 7.2 km/h 92% 0.0 mm 0 W/m2
05:33 11.7 °C 10.4 °C 1003.9 hPa NW 3.5 km/h 7.2 km/h 92% 0.0 mm 0 W/m2
05:38 11.6 °C 10.3 °C 1003.9 hPa NW 5.0 km/h 7.2 km/h 92% 0.0 mm 0 W/m2
05:43 11.5 °C 10.2 °C 1004.3 hPa NW 6.1 km/h 8.7 km/h 92% 0.0 mm 0 W/m2
05:48 11.4 °C 10.3 °C 1003.9 hPa NW 6.1 km/h 8.7 km/h 93% 0.0 mm 0 W/m2
05:53 11.3 °C 10.2 °C 1004.3 hPa NW 5.0 km/h 8.7 km/h 93% 0.0 mm 0 W/m2
05:58 11.3 °C 10.4 °C 1004.3 hPa NW 3.5 km/h 8.7 km/h 94% 0.0 mm 0 W/m2
06:03 11.3 °C 10.4 °C 1004.6 hPa NW 7.2 km/h 9.7 km/h 94% 0.0 mm 0 W/m2
06:08 11.4 °C 10.6 °C 1004.6 hPa NNW 7.2 km/h 12.2 km/h 95% 0.0 mm 0 W/m2
06:13 11.6 °C 10.8 °C 1004.6 hPa NNW 5.0 km/h 12.2 km/h 95% 0.0 mm 0 W/m2
06:18 11.8 °C 11.1 °C 1004.6 hPa NNW 5.0 km/h 12.2 km/h 95% 0.0 mm 0 W/m2
06:23 11.8 °C 10.9 °C 1004.6 hPa NW 9.7 km/h 13.4 km/h 94% 0.0 mm 0 W/m2
06:28 11.9 °C 10.9 °C 1004.6 hPa NNW 8.7 km/h 13.4 km/h 94% 0.0 mm 0 W/m2
06:33 12.0 °C 10.9 °C 1004.6 hPa NNW 6.1 km/h 13.4 km/h 93% 0.0 mm 0 W/m2
06:38 12.0 °C 10.7 °C 1004.6 hPa NW 5.0 km/h 12.2 km/h 92% 0.0 mm 0 W/m2
06:43 11.9 °C 10.8 °C 1004.6 hPa NW 3.5 km/h 8.7 km/h 93% 0.0 mm 0 W/m2
06:48 11.8 °C 10.7 °C 1005.0 hPa NW 2.6 km/h 7.2 km/h 93% 0.0 mm 0 W/m2
06:53 11.7 °C 10.8 °C 1005.0 hPa NW 3.5 km/h 7.2 km/h 94% 0.0 mm 0 W/m2
06:58 11.7 °C 10.8 °C 1005.0 hPa NW 6.1 km/h 7.2 km/h 94% 0.0 mm 0 W/m2
07:03 11.7 °C 10.8 °C 1005.0 hPa NW 5.0 km/h 9.7 km/h 94% 0.0 mm 0 W/m2
07:08 11.6 °C 10.7 °C 1005.0 hPa NW 3.5 km/h 9.7 km/h 94% 0.0 mm 0 W/m2
07:13 11.6 °C 10.7 °C 1005.0 hPa NW 5.0 km/h 7.2 km/h 94% 0.0 mm 0 W/m2
07:18 11.5 °C 10.6 °C 1005.0 hPa NW 5.0 km/h 8.7 km/h 94% 0.0 mm 0 W/m2
07:23 11.4 °C 10.4 °C 1005.0 hPa NW 3.5 km/h 8.7 km/h 94% 0.0 mm 2 W/m2
07:28 11.4 °C 10.4 °C 1005.3 hPa NNW 6.1 km/h 8.7 km/h 94% 0.0 mm 3 W/m2
07:33 11.4 °C 10.4 °C 1005.0 hPa NW 6.1 km/h 8.7 km/h 94% 0.0 mm 4 W/m2
07:38 11.3 °C 10.6 °C 1005.0 hPa NW 5.0 km/h 7.2 km/h 95% 0.0 mm 6 W/m2
07:43 11.2 °C 10.4 °C 1005.3 hPa NW 6.1 km/h 8.7 km/h 95% 0.0 mm 8 W/m2
07:48 11.1 °C 10.3 °C 1005.3 hPa NW 6.1 km/h 9.7 km/h 95% 0.0 mm 11 W/m2
07:53 11.1 °C 10.3 °C 1005.3 hPa NNW 6.1 km/h 9.7 km/h 95% 0.0 mm 15 W/m2
07:58 11.1 °C 10.3 °C 1005.3 hPa NW 5.0 km/h 8.7 km/h 95% 0.0 mm 19 W/m2
08:03 11.1 °C 10.5 °C 1005.6 hPa NW 3.5 km/h 9.7 km/h 96% 0.0 mm 72 W/m2
08:08 11.6 °C 11.0 °C 1005.6 hPa NW 5.0 km/h 9.7 km/h 96% 0.0 mm 126 W/m2
08:13 12.2 °C 11.4 °C 1005.6 hPa NW 5.0 km/h 7.2 km/h 95% 0.0 mm 110 W/m2
08:18 12.6 °C 11.5 °C 1005.6 hPa NW 5.0 km/h 9.7 km/h 93% 0.0 mm 157 W/m2
08:23 13.2 °C 11.8 °C 1005.6 hPa NW 5.0 km/h 9.7 km/h 91% 0.0 mm 167 W/m2
08:28 13.4 °C 11.8 °C 1005.6 hPa NW 6.1 km/h 9.7 km/h 90% 0.0 mm 151 W/m2
08:33 13.4 °C 11.4 °C 1006.0 hPa Calm   8.7 km/h 88% 0.0 mm 46 W/m2
08:38 13.1 °C 11.2 °C 1005.6 hPa Calm   8.7 km/h 88% 0.0 mm 44 W/m2
08:43 12.9 °C 10.9 °C 1006.0 hPa NW 1.1 km/h 5.0 km/h 88% 0.0 mm 49 W/m2
08:48 12.9 °C 11.1 °C 1006.0 hPa NW 3.5 km/h 5.0 km/h 89% 0.0 mm 65 W/m2
08:53 12.8 °C 11.1 °C 1006.0 hPa NNW 3.5 km/h 6.1 km/h 89% 0.0 mm 75 W/m2
08:58 12.8 °C 11.4 °C 1006.0 hPa Calm   6.1 km/h 91% 0.0 mm 92 W/m2
09:03 12.9 °C 11.4 °C 1006.0 hPa NNW 3.5 km/h 7.2 km/h 91% 0.0 mm 122 W/m2
09:08 13.4 °C 11.8 °C 1006.3 hPa NW 3.5 km/h 7.2 km/h 90% 0.0 mm 103 W/m2
09:13 13.8 °C 12.2 °C 1006.7 hPa NW 5.0 km/h 7.2 km/h 90% 0.0 mm 141 W/m2
09:18 14.1 °C 12.2 °C 1006.7 hPa NNW 3.5 km/h 8.7 km/h 88% 0.0 mm 182 W/m2
09:23 14.3 °C 12.0 °C 1006.7 hPa NNW 7.2 km/h 9.7 km/h 86% 0.0 mm 104 W/m2
09:28 14.1 °C 11.6 °C 1006.7 hPa NNW 7.2 km/h 9.7 km/h 85% 0.0 mm 89 W/m2
09:33 14.1 °C 11.8 °C 1006.7 hPa NW 6.1 km/h 9.7 km/h 86% 0.0 mm 79 W/m2
09:38 14.1 °C 11.8 °C 1006.7 hPa NW 5.0 km/h 11.1 km/h 86% 0.0 mm 78 W/m2
09:43 14.1 °C 11.8 °C 1006.7 hPa NNW 7.2 km/h 11.1 km/h 86% 0.0 mm 82 W/m2
09:48 14.1 °C 11.8 °C 1006.7 hPa NNW 5.0 km/h 8.7 km/h 86% 0.0 mm 96 W/m2
09:53 14.1 °C 11.8 °C 1006.7 hPa NNW 7.2 km/h 9.7 km/h 86% 0.0 mm 98 W/m2
09:58 14.3 °C 12.0 °C 1006.7 hPa NNW 6.1 km/h 9.7 km/h 86% 0.0 mm 103 W/m2
10:03 14.6 °C 12.3 °C 1006.7 hPa NNW 6.1 km/h 9.7 km/h 86% 0.0 mm 109 W/m2
10:08 14.8 °C 12.3 °C 1006.7 hPa NNW 2.6 km/h 7.2 km/h 85% 0.0 mm 114 W/m2
10:13 15.2 °C 12.5 °C 1006.7 hPa NNW 5.0 km/h 7.2 km/h 84% 0.0 mm 118 W/m2
10:18 15.9 °C 13.0 °C 1007.0 hPa NNW 3.5 km/h 7.2 km/h 83% 0.0 mm 123 W/m2
10:23 16.9 °C 13.1 °C 1007.0 hPa NNW 5.0 km/h 7.2 km/h 78% 0.0 mm 113 W/m2
10:28 16.9 °C 11.8 °C 1007.0 hPa NW 7.2 km/h 11.1 km/h 72% 0.0 mm 102 W/m2
10:33 16.6 °C 11.6 °C 1007.0 hPa NW 7.2 km/h 12.2 km/h 72% 0.0 mm 89 W/m2
10:38 16.2 °C 11.2 °C 1007.0 hPa NW 3.5 km/h 12.2 km/h 72% 0.0 mm 87 W/m2
10:55 17.2 °C 11.3 °C 1007.3 hPa WNW 3.5 km/h 8.7 km/h 68% 0.0 mm 226 W/m2
11:00 17.7 °C 11.5 °C 1007.3 hPa NW 5.0 km/h 8.7 km/h 67% 0.0 mm 292 W/m2
11:06 18.2 °C 11.1 °C 1007.3 hPa WNW 5.0 km/h 9.7 km/h 63% 0.0 mm 295 W/m2
11:11 18.4 °C 10.5 °C 1007.3 hPa West 8.7 km/h 12.2 km/h 60% 0.0 mm 293 W/m2
11:16 18.5 °C 10.1 °C 1007.3 hPa WNW 9.7 km/h 13.4 km/h 58% 0.0 mm 289 W/m2
11:21 18.3 °C 9.7 °C 1007.3 hPa WNW 8.7 km/h 13.4 km/h 57% 0.0 mm 287 W/m2
11:26 18.5 °C 9.8 °C 1007.3 hPa NW 7.2 km/h 13.4 km/h 57% 0.0 mm 284 W/m2
11:31 18.8 °C 10.1 °C 1007.3 hPa WNW 7.2 km/h 13.4 km/h 57% 0.0 mm 278 W/m2
11:36 18.7 °C 10.0 °C 1007.3 hPa WNW 7.2 km/h 14.8 km/h 57% 0.0 mm 273 W/m2
11:41 18.9 °C 9.9 °C 1007.3 hPa WNW 8.7 km/h 14.8 km/h 56% 0.0 mm 268 W/m2
11:46 19.1 °C 9.6 °C 1007.3 hPa NW 3.5 km/h 13.4 km/h 54% 0.0 mm 259 W/m2
11:51 19.3 °C 9.5 °C 1007.3 hPa WNW 9.7 km/h 15.8 km/h 53% 0.0 mm 252 W/m2
11:56 18.9 °C 8.6 °C 1007.3 hPa WNW 9.7 km/h 17.2 km/h 51% 0.0 mm 243 W/m2
12:01 19.0 °C 9.2 °C 1007.3 hPa WNW 6.1 km/h 17.2 km/h 53% 0.0 mm 229 W/m2
12:06 19.2 °C 9.4 °C 1007.3 hPa West 3.5 km/h 13.4 km/h 53% 0.0 mm 217 W/m2
12:11 19.5 °C 9.4 °C 1007.3 hPa WNW 6.1 km/h 13.4 km/h 52% 0.0 mm 203 W/m2
12:16 19.5 °C 9.7 °C 1007.0 hPa WNW 9.7 km/h 17.2 km/h 53% 0.0 mm 175 W/m2
12:21 19.5 °C 9.4 °C 1007.0 hPa NW 5.0 km/h 17.2 km/h 52% 0.0 mm 155 W/m2
12:27 20.2 °C 10.1 °C 1007.0 hPa WNW 5.0 km/h 14.8 km/h 52% 0.0 mm 139 W/m2
12:32 20.2 °C 9.2 °C 1006.7 hPa NW 7.2 km/h 13.4 km/h 49% 0.0 mm 77 W/m2
12:37 19.5 °C 9.4 °C 1006.7 hPa NNW 5.0 km/h 13.4 km/h 52% 0.0 mm 71 W/m2
12:42 19.0 °C 9.2 °C 1006.7 hPa NNW 3.5 km/h 12.2 km/h 53% 0.0 mm 109 W/m2
12:47 19.5 °C 9.9 °C 1006.7 hPa NW 7.2 km/h 9.7 km/h 54% 0.0 mm 141 W/m2
12:52 18.8 °C 9.6 °C 1006.7 hPa NW 5.0 km/h 9.7 km/h 55% 0.0 mm 174 W/m2
12:57 19.1 °C 9.6 °C 1006.7 hPa NW 3.5 km/h 11.1 km/h 54% 0.0 mm 162 W/m2
13:02 19.0 °C 9.5 °C 1006.7 hPa NW 6.1 km/h 11.1 km/h 54% 0.0 mm 150 W/m2
13:07 18.5 °C 9.6 °C 1006.7 hPa NW 6.1 km/h 11.1 km/h 56% 0.0 mm 128 W/m2
13:12 18.1 °C 9.4 °C 1006.7 hPa NW 5.0 km/h 9.7 km/h 57% 0.0 mm 100 W/m2
13:17 17.9 °C 9.3 °C 1006.7 hPa WNW 6.1 km/h 14.8 km/h 57% 0.0 mm 149 W/m2
13:22 18.5 °C 11.3 °C 1007.0 hPa West 3.5 km/h 14.8 km/h 63% 0.0 mm 150 W/m2
13:27 19.0 °C 11.8 °C 1007.0 hPa SSW 3.5 km/h 11.1 km/h 63% 0.0 mm 120 W/m2
13:32 19.1 °C 11.9 °C 1007.0 hPa SSW 7.2 km/h 13.4 km/h 63% 0.0 mm 133 W/m2
13:37 18.4 °C 11.0 °C 1007.0 hPa SSW 8.7 km/h 13.4 km/h 62% 0.0 mm 131 W/m2
13:42 18.5 °C 10.8 °C 1007.0 hPa SSW 6.1 km/h 13.4 km/h 61% 0.0 mm 142 W/m2
13:47 18.9 °C 11.4 °C 1007.0 hPa SW 11.1 km/h 15.8 km/h 62% 0.0 mm 87 W/m2
13:52 18.7 °C 11.5 °C 1006.7 hPa SW 6.1 km/h 15.8 km/h 63% 0.0 mm 78 W/m2
13:57 18.6 °C 10.9 °C 1007.0 hPa SSW 9.7 km/h 18.3 km/h 61% 0.0 mm 77 W/m2
14:02 18.4 °C 10.5 °C 1007.0 hPa SSW 8.7 km/h 18.3 km/h 60% 0.0 mm 80 W/m2
14:07 18.8 °C 11.1 °C 1006.7 hPa SSW 6.1 km/h 15.8 km/h 61% 0.0 mm 85 W/m2
14:12 19.1 °C 10.9 °C 1007.0 hPa SSW 6.1 km/h 11.1 km/h 59% 0.0 mm 88 W/m2
14:17 19.0 °C 10.6 °C 1007.0 hPa SSW 9.7 km/h 12.2 km/h 58% 0.0 mm 102 W/m2
14:22 18.9 °C 10.4 °C 1006.7 hPa SSW 8.7 km/h 12.2 km/h 58% 0.0 mm 143 W/m2
14:27 18.9 °C 10.4 °C 1007.0 hPa SSW 7.2 km/h 13.4 km/h 58% 0.0 mm 191 W/m2
14:32 19.5 °C 10.5 °C 1007.0 hPa South 7.2 km/h 13.4 km/h 56% 0.0 mm 219 W/m2
14:37 19.3 °C 10.3 °C 1007.0 hPa SSW 7.2 km/h 11.1 km/h 56% 0.0 mm 227 W/m2
14:42 19.3 °C 10.6 °C 1007.0 hPa SW 6.1 km/h 11.1 km/h 57% 0.0 mm 228 W/m2
14:47 18.8 °C 10.9 °C 1007.0 hPa SSW 7.2 km/h 14.8 km/h 60% 0.0 mm 121 W/m2
14:52 18.0 °C 10.8 °C 1007.3 hPa SW 6.1 km/h 14.8 km/h 63% 0.0 mm 85 W/m2
14:57 17.2 °C 10.1 °C 1007.0 hPa SW 7.2 km/h 12.2 km/h 63% 0.0 mm 104 W/m2
15:02 16.9 °C 10.7 °C 1007.3 hPa SW 5.0 km/h 11.1 km/h 67% 0.0 mm 93 W/m2
15:07 17.0 °C 10.8 °C 1007.0 hPa SW 1.1 km/h 11.1 km/h 67% 0.0 mm 103 W/m2
15:12 17.2 °C 10.8 °C 1007.0 hPa SSW 7.2 km/h 9.7 km/h 66% 0.0 mm 87 W/m2
15:17 17.1 °C 11.4 °C 1007.0 hPa South 7.2 km/h 11.1 km/h 69% 0.0 mm 94 W/m2
15:22 17.0 °C 11.1 °C 1007.0 hPa South 5.0 km/h 11.1 km/h 68% 0.0 mm 160 W/m2
15:27 17.7 °C 11.1 °C 1007.0 hPa South 5.0 km/h 11.1 km/h 65% 0.0 mm 88 W/m2
15:32 17.4 °C 10.3 °C 1007.0 hPa SSW 5.0 km/h 8.7 km/h 63% 0.0 mm 94 W/m2
15:37 17.2 °C 10.3 °C 1007.3 hPa SW 3.5 km/h 8.7 km/h 64% 0.0 mm 81 W/m2
15:42 17.0 °C 9.9 °C 1007.3 hPa SW 2.6 km/h 7.2 km/h 63% 0.0 mm 82 W/m2
15:47 17.6 °C 10.7 °C 1007.3 hPa Calm   6.1 km/h 64% 0.0 mm 68 W/m2
15:52 17.6 °C 10.5 °C 1007.3 hPa Calm   3.5 km/h 63% 0.0 mm 49 W/m2
15:57 17.3 °C 10.2 °C 1007.3 hPa Calm   2.6 km/h 63% 0.0 mm 43 W/m2
16:02 16.8 °C 10.4 °C 1007.3 hPa SW 2.6 km/h 5.0 km/h 66% 0.0 mm 42 W/m2
16:07 16.5 °C 10.6 °C 1007.3 hPa Calm   5.0 km/h 68% 0.0 mm 38 W/m2
16:12 16.4 °C 10.9 °C 1007.3 hPa Calm   3.5 km/h 70% 0.0 mm 34 W/m2
16:17 16.2 °C 11.2 °C 1007.3 hPa Calm   3.5 km/h 72% 0.0 mm 32 W/m2
16:22 15.9 °C 11.1 °C 1007.3 hPa SSW 2.6 km/h 6.1 km/h 73% 0.0 mm 25 W/m2
16:27 15.7 °C 11.1 °C 1007.3 hPa SW 2.6 km/h 6.1 km/h 74% 0.0 mm 20 W/m2
16:32 15.5 °C 11.3 °C 1007.3 hPa SW 2.6 km/h 5.0 km/h 76% 0.0 mm 16 W/m2
16:37 15.6 °C 11.6 °C 1007.3 hPa WSW 1.1 km/h 5.0 km/h 77% 0.0 mm 13 W/m2
16:42 15.9 °C 11.7 °C 1007.3 hPa Calm   3.5 km/h 76% 0.0 mm 10 W/m2
16:47 15.8 °C 11.2 °C 1007.3 hPa Calm   2.6 km/h 74% 0.0 mm 11 W/m2
16:52 15.9 °C 11.3 °C 1007.7 hPa Calm     74% 0.0 mm 4 W/m2
16:57 15.6 °C 11.0 °C 1007.7 hPa SW 2.6 km/h 3.5 km/h 74% 0.0 mm 1 W/m2
17:02 15.2 °C 10.8 °C 1007.7 hPa SW 1.1 km/h 6.1 km/h 75% 0.0 mm 0 W/m2
17:07 14.9 °C 11.1 °C 1007.7 hPa Calm   6.1 km/h 78% 0.0 mm 0 W/m2
17:12 14.7 °C 11.1 °C 1007.7 hPa Calm   2.6 km/h 79% 0.0 mm 0 W/m2
17:17 14.5 °C 10.9 °C 1007.7 hPa Calm     79% 0.0 mm 0 W/m2
17:22 14.3 °C 10.9 °C 1007.7 hPa Calm     80% 0.0 mm 0 W/m2
17:27 14.2 °C 10.8 °C 1007.7 hPa Calm     80% 0.0 mm 0 W/m2
17:32 14.0 °C 10.6 °C 1007.7 hPa Calm     80% 0.0 mm 0 W/m2
17:37 13.9 °C 10.9 °C 1008.0 hPa Calm     82% 0.0 mm 0 W/m2
17:42 13.7 °C 10.7 °C 1008.0 hPa Calm     82% 0.0 mm 0 W/m2
17:47 13.4 °C 10.6 °C 1008.0 hPa Calm     83% 0.0 mm 0 W/m2
17:52 13.2 °C 10.7 °C 1008.0 hPa North 2.6 km/h 3.5 km/h 85% 0.0 mm 0 W/m2
17:57 13.0 °C 10.7 °C 1008.0 hPa Calm   3.5 km/h 86% 0.0 mm 0 W/m2
18:02 13.0 °C 10.9 °C 1008.4 hPa Calm   3.5 km/h 87% 0.0 mm 0 W/m2
18:07 12.8 °C 10.9 °C 1008.4 hPa NNW 2.6 km/h 5.0 km/h 88% 0.0 mm 0 W/m2
18:12 12.7 °C 10.9 °C 1008.4 hPa Calm   5.0 km/h 89% 0.0 mm 0 W/m2
18:17 12.6 °C 10.8 °C 1008.4 hPa Calm   3.5 km/h 89% 0.0 mm 0 W/m2
18:22 12.6 °C 10.8 °C 1008.4 hPa Calm     89% 0.0 mm 0 W/m2
18:27 12.5 °C 10.9 °C 1008.4 hPa NW 3.5 km/h 6.1 km/h 90% 0.0 mm 0 W/m2
18:32 12.4 °C 10.7 °C 1008.4 hPa Calm   6.1 km/h 89% 0.0 mm 0 W/m2
18:37 12.3 °C 10.7 °C 1008.4 hPa Calm   6.1 km/h 90% 0.0 mm 0 W/m2
18:42 12.2 °C 10.6 °C 1008.7 hPa Calm   1.1 km/h 90% 0.0 mm 0 W/m2
18:47 12.0 °C 10.4 °C 1008.4 hPa NNW 1.1 km/h 6.1 km/h 90% 0.0 mm 0 W/m2
18:52 11.8 °C 10.4 °C 1008.4 hPa Calm   6.1 km/h 91% 0.0 mm 0 W/m2
18:57 11.6 °C 10.3 °C 1008.7 hPa Calm   3.5 km/h 92% 0.0 mm 0 W/m2
19:02 11.5 °C 10.2 °C 1008.7 hPa Calm     92% 0.0 mm 0 W/m2
19:07 11.4 °C 10.2 °C 1008.7 hPa Calm     92% 0.0 mm 0 W/m2
19:12 11.2 °C 10.1 °C 1008.7 hPa NW 2.6 km/h 5.0 km/h 93% 0.0 mm 0 W/m2
19:17 11.1 °C 10.0 °C 1008.7 hPa NW 1.1 km/h 5.0 km/h 93% 0.0 mm 0 W/m2
19:22 11.0 °C 10.1 °C 1008.7 hPa NW 2.6 km/h 5.0 km/h 94% 0.0 mm 0 W/m2
19:27 10.9 °C 10.1 °C 1009.0 hPa NW 1.1 km/h 5.0 km/h 95% 0.0 mm 0 W/m2
19:32 10.7 °C 9.9 °C 1009.0 hPa NNW 2.6 km/h 5.0 km/h 95% 0.0 mm 0 W/m2
19:37 10.6 °C 9.8 °C 1009.0 hPa North 2.6 km/h 5.0 km/h 95% 0.0 mm 0 W/m2
19:42 10.4 °C 9.8 °C 1009.0 hPa North 2.6 km/h 5.0 km/h 96% 0.0 mm 0 W/m2
19:47 10.4 °C 9.8 °C 1009.0 hPa NNW 3.5 km/h 5.0 km/h 96% 0.0 mm 0 W/m2
19:52 10.3 °C 9.7 °C 1009.0 hPa NNW 3.5 km/h 6.1 km/h 96% 0.0 mm 0 W/m2
19:57 10.2 °C 9.6 °C 1009.4 hPa NNW 2.6 km/h 6.1 km/h 96% 0.0 mm 0 W/m2
20:02 10.2 °C 9.6 °C 1009.0 hPa Calm   5.0 km/h 96% 0.0 mm 0 W/m2
20:07 10.2 °C 9.6 °C 1009.0 hPa Calm   5.0 km/h 96% 0.0 mm 0 W/m2
20:12 10.2 °C 9.4 °C 1009.4 hPa Calm     95% 0.0 mm 0 W/m2
20:17 10.2 °C 9.4 °C 1009.0 hPa Calm     95% 0.0 mm 0 W/m2
20:22 10.1 °C 9.3 °C 1009.0 hPa Calm     95% 0.0 mm 0 W/m2
20:27 10.1 °C 9.3 °C 1009.0 hPa Calm     95% 0.0 mm 0 W/m2
20:32 10.1 °C 9.3 °C 1009.4 hPa Calm     95% 0.0 mm 0 W/m2
20:37 10.1 °C 9.3 °C 1009.4 hPa Calm     95% 0.0 mm 0 W/m2
20:42 10.0 °C 9.1 °C 1009.4 hPa Calm     94% 0.0 mm 0 W/m2
20:47 10.0 °C 9.1 °C 1009.4 hPa Calm     94% 0.0 mm 0 W/m2
20:52 10.0 °C 9.1 °C 1009.4 hPa Calm     94% 0.0 mm 0 W/m2
20:57 10.0 °C 9.1 °C 1009.4 hPa North 2.6 km/h 5.0 km/h 94% 0.0 mm 0 W/m2
21:02 10.0 °C 9.1 °C 1009.4 hPa Calm   5.0 km/h 94% 0.0 mm 0 W/m2
21:07 9.9 °C 9.1 °C 1009.4 hPa NNW 2.6 km/h 5.0 km/h 95% 0.0 mm 0 W/m2
21:12 9.9 °C 9.0 °C 1009.4 hPa NNW 3.5 km/h 5.0 km/h 94% 0.0 mm 0 W/m2
21:17 9.9 °C 9.0 °C 1009.7 hPa NNW 2.6 km/h 5.0 km/h 94% 0.0 mm 0 W/m2
21:22 9.8 °C 8.9 °C 1009.7 hPa NNW 2.6 km/h 5.0 km/h 94% 0.0 mm 0 W/m2
21:27 9.7 °C 8.6 °C 1009.7 hPa North 3.5 km/h 6.1 km/h 93% 0.0 mm 0 W/m2
21:32 9.8 °C 8.7 °C 1009.7 hPa NNW 1.1 km/h 6.1 km/h 93% 0.0 mm 0 W/m2
21:37 9.8 °C 8.6 °C 1009.4 hPa NW 2.6 km/h 6.1 km/h 92% 0.0 mm 0 W/m2
21:42 9.6 °C 8.4 °C 1009.7 hPa Calm   5.0 km/h 92% 0.0 mm 0 W/m2
21:47 9.4 °C 8.3 °C 1009.7 hPa NW 5.0 km/h 6.1 km/h 93% 0.0 mm 0 W/m2
21:52 9.2 °C 8.3 °C 1009.7 hPa NW 3.5 km/h 6.1 km/h 94% 0.0 mm 0 W/m2
21:57 9.1 °C 8.2 °C 1009.7 hPa Calm   6.1 km/h 94% 0.0 mm 0 W/m2
22:02 9.0 °C 8.1 °C 1009.7 hPa Calm   5.0 km/h 94% 0.0 mm 0 W/m2
22:07 8.9 °C 8.2 °C 1009.7 hPa NNW 3.5 km/h 6.1 km/h 95% 0.0 mm 0 W/m2
22:12 9.0 °C 8.1 °C 1009.7 hPa NNW 2.6 km/h 6.1 km/h 94% 0.0 mm 0 W/m2
22:17 9.0 °C 7.9 °C 1009.4 hPa NNW 2.6 km/h 6.1 km/h 93% 0.0 mm 0 W/m2
22:22 9.0 °C 7.9 °C 1009.7 hPa Calm   5.0 km/h 93% 0.0 mm 0 W/m2
22:27 8.9 °C 7.8 °C 1009.7 hPa NNW 2.6 km/h 5.0 km/h 93% 0.0 mm 0 W/m2
22:32 8.8 °C 7.7 °C 1010.0 hPa NNW 2.6 km/h 3.5 km/h 93% 0.0 mm 0 W/m2
22:37 8.8 °C 7.7 °C 1010.0 hPa North 5.0 km/h 7.2 km/h 93% 0.0 mm 0 W/m2
22:42 9.0 °C 7.8 °C 1009.7 hPa North 3.5 km/h 7.2 km/h 92% 0.0 mm 0 W/m2
22:47 9.2 °C 7.7 °C 1009.7 hPa NNW 5.0 km/h 7.2 km/h 90% 0.0 mm 0 W/m2
22:52 9.4 °C 7.7 °C 1009.7 hPa NW 2.6 km/h 7.2 km/h 89% 0.0 mm 0 W/m2
22:57 9.4 °C 7.3 °C 1009.7 hPa NW 3.5 km/h 7.2 km/h 87% 0.0 mm 0 W/m2
23:02 9.3 °C 7.2 °C 1009.7 hPa NNW 1.1 km/h 6.1 km/h 87% 0.0 mm 0 W/m2
23:07 9.2 °C 7.2 °C 1010.0 hPa Calm   6.1 km/h 87% 0.0 mm 0 W/m2
23:12 9.0 °C 6.8 °C 1010.0 hPa Calm   3.5 km/h 86% 0.0 mm 0 W/m2
23:17 8.9 °C 7.0 °C 1010.0 hPa Calm   2.6 km/h 88% 0.0 mm 0 W/m2
23:22 8.8 °C 6.9 °C 1010.0 hPa Calm     88% 0.0 mm 0 W/m2
23:27 8.6 °C 6.7 °C 1010.0 hPa NW 3.5 km/h 5.0 km/h 88% 0.0 mm 0 W/m2
23:32 8.7 °C 7.0 °C 1010.0 hPa NW 5.0 km/h 7.2 km/h 89% 0.0 mm 0 W/m2
23:37 8.8 °C 6.9 °C 1010.4 hPa NW 5.0 km/h 7.2 km/h 88% 0.0 mm 0 W/m2
23:42 8.9 °C 7.0 °C 1010.0 hPa NW 5.0 km/h 8.7 km/h 88% 0.0 mm 0 W/m2
23:47 9.1 °C 6.9 °C 1010.0 hPa NNW 2.6 km/h 8.7 km/h 86% 0.0 mm 0 W/m2
23:52 9.1 °C 6.9 °C 1010.0 hPa NW 3.5 km/h 8.7 km/h 86% 0.0 mm 0 W/m2
23:57 9.1 °C 6.7 °C 1010.4 hPa NW 2.6 km/h 6.1 km/h 85% 0.0 mm 0 W/m2
Northern Hawkes Bay. New Zealand Historic Data
Compliments of Weather Underground - 2 mb